Data for 11/04/2006

Time Sea-Level Adjusted Pressure Absolute Pressure Temperature Relative Humidity Dew Point   
(mb) (inHg) (mb) (inHg) (C) (F) (%) (C) (F)
00:05 1016 30 846 24.98 3.7 38.7 67 -1.8 28.7
00:10 1016 30 846 24.98 3.9 39 66 -1.9 28.6
00:15 1016 30 846 24.98 4.2 39.6 63 -2.2 28.1
00:20 1016 30 846 24.98 4.8 40.7 61 -2.1 28.2
00:25 1016 30 846 24.98 4.7 40.5 62 -1.8 28.7
00:30 1016 30 846 24.98 4.4 39.9 64 -1.9 28.6
00:35 1016 30 846 24.98 4.3 39.8 63 -2 28.3
00:40 1016 30 846 24.98 4.4 39.9 63 -2.1 28.3
00:45 1016 30 846 24.98 4.5 40.1 62 -2.1 28.2
00:50 1016 30 846 24.98 4.9 40.7 60 -2.3 27.8
00:55 1016 30 846 24.98 5.1 41.1 59 -2.2 28
01:00 1016 30 846 24.98 5 41.1 59 -2.2 28.1
01:05 1016 30 846 24.98 4.8 40.7 60 -2.2 28
01:10 1017 30.03 846 24.98 4.7 40.4 61 -2.3 27.9
01:15 1016 30 846 24.98 4.5 40.1 62 -2.2 28.1
01:20 1017 30.03 846 24.98 4.3 39.8 63 -2.2 28.1
01:25 1016 30 846 24.98 3.8 38.8 65 -2.3 27.9
01:30 1016 30 846 24.98 3.8 38.9 63 -2.5 27.5
01:35 1017 30.03 846 24.98 4 39.3 62 -2.5 27.5
01:40 1017 30.03 846 24.98 4.4 40 61 -2.5 27.6
01:45 1017 30.03 846 24.98 4.5 40.1 61 -2.4 27.6
01:50 1017 30.03 846 24.98 4.5 40.2 62 -2.1 28.2
01:55 1017 30.03 846 24.98 4.4 39.9 61 -2.5 27.5
02:00 1017 30.03 846 24.98 4.8 40.6 60 -2.4 27.6
02:05 1017 30.03 846 24.98 4.9 40.8 59 -2.4 27.6
02:10 1017 30.03 846 24.98 5.3 41.5 58 -2.3 27.9
02:15 1017 30.03 846 24.98 4.9 40.9 61 -2 28.4
02:20 1017 30.03 846 24.98 4.1 39.4 64 -2.1 28.2
02:25 1017 30.03 846 24.98 4 39.2 63 -2.4 27.7
02:30 1017 30.03 846 24.98 3.9 39.1 64 -2.3 27.8
02:35 1017 30.03 846 24.98 3.9 39.1 63 -2.5 27.5
02:40 1017 30.03 846 24.98 4.1 39.4 62 -2.5 27.5
02:45 1017 30.03 846 24.98 4.2 39.5 62 -2.4 27.7
02:50 1017 30.03 846 24.98 4.6 40.3 60 -2.4 27.7
02:55 1017 30.03 846 24.98 4.7 40.4 61 -2.3 27.9
03:00 1017 30.03 846 24.98 4.6 40.3 61 -2.3 27.9
03:05 1017 30.03 846 24.98 4.4 40 62 -2.2 28.1
03:10 1017 30.03 846 24.98 4.1 39.4 63 -2.2 28
03:15 1017 30.03 846 24.98 4.2 39.6 64 -2.1 28.3
03:20 1017 30.03 846 24.98 4.6 40.3 62 -2.1 28.2
03:25 1017 30.03 846 24.98 4.6 40.3 62 -1.9 28.5
03:30 1017 30.03 846 24.98 4.2 39.5 64 -1.9 28.6
03:35 1017 30.03 846 24.98 4.3 39.8 63 -2.2 28.1
03:40 1017 30.03 846 24.98 4.6 40.2 62 -2.1 28.2
03:45 1017 30.03 846 24.98 4.4 39.9 62 -2.2 28.1
03:50 1017 30.03 846 24.98 4.5 40 62 -2.2 28.1
03:55 1017 30.03 846 24.98 4.4 40 62 -2.1 28.2
04:00 1017 30.03 846 24.98 4.4 39.9 63 -2.1 28.2
04:05 1017 30.03 846 24.98 4.7 40.5 61 -2.2 28
04:10 1017 30.03 846 24.98 5 40.9 60 -2.2 28.1
04:15 1017 30.03 846 24.98 4.9 40.8 61 -2 28.4
04:20 1017 30.03 846 24.98 4.7 40.5 61 -2.2 28.1
04:25 1017 30.03 846 24.98 4.7 40.4 62 -2 28.5
04:30 1017 30.03 846 24.98 4.6 40.3 62 -2.1 28.2
04:35 1017 30.03 846 24.98 4.8 40.6 60 -2.2 28
04:40 1017 30.03 846 24.98 5.1 41.1 60 -2.1 28.2
04:45 1017 30.03 846 24.98 5.1 41.1 59 -2.2 28.1
04:50 1017 30.03 846 24.98 5.1 41.2 60 -2 28.3
04:55 1017 30.03 846 24.98 5.2 41.4 58 -2.2 28
05:00 1017 30.03 846 24.98 5.5 41.8 58 -2.1 28.1
05:05 1017 30.03 846 24.98 5.5 42 58 -2.1 28.2
05:10 1017 30.03 847 25.01 5.6 42.1 58 -2.1 28.3
05:15 1017 30.03 847 25.01 5.4 41.6 59 -2 28.4
05:20 1017 30.03 847 25.01 5.2 41.4 60 -1.9 28.5
05:25 1017 30.03 847 25.01 5 41 61 -1.9 28.5
05:30 1017 30.03 847 25.01 4.9 40.8 61 -1.9 28.5
05:35 1017 30.03 846 24.98 4.7 40.5 61 -2 28.3
05:40 1017 30.03 847 25.01 4.8 40.7 60 -2.3 27.9
05:45 1017 30.03 847 25.01 5.4 41.7 59 -1.9 28.7
05:50 1017 30.03 847 25.01 5.9 42.7 54 -2.6 27.4
05:55 1017 30.03 847 25.01 6.5 43.7 56 -1.7 28.9
06:00 1017 30.03 847 25.01 6 42.8 58 -1.5 29.3
06:05 1018 30.06 847 25.01 5.3 41.6 61 -1.6 29.1
06:10 1018 30.06 847 25.01 5.2 41.4 60 -2 28.4
06:15 1018 30.06 847 25.01 5.1 41.2 61 -1.7 28.9
06:20 1018 30.06 847 25.01 5.1 41.2 61 -1.8 28.7
06:25 1018 30.06 847 25.01 5.3 41.5 60 -1.8 28.7
06:30 1018 30.06 847 25.01 5.4 41.7 59 -1.9 28.6
06:35 1018 30.06 847 25.01 5.6 42 59 -1.7 28.9
06:40 1018 30.06 847 25.01 5.3 41.6 62 -1.3 29.7
06:45 1018 30.06 847 25.01 5 41.1 63 -1.5 29.4
06:50 1018 30.06 847 25.01 5.1 41.2 60 -1.9 28.6
06:55 1018 30.06 847 25.01 5.8 42.5 58 -1.8 28.7
07:00 1018 30.06 847 25.01 6.1 43 58 -1.6 29.1
07:05 1018 30.06 847 25.01 6.1 43 59 -1.4 29.5
07:10 1018 30.06 847 25.01 5.9 42.6 59 -1.5 29.2
07:15 1018 30.06 847 25.01 5.9 42.7 58 -1.7 28.9
07:20 1018 30.06 847 25.01 6.1 43 58 -1.6 29.1
07:25 1018 30.06 847 25.01 6.1 42.9 58 -1.5 29.3
07:30 1018 30.06 847 25.01 6.1 43 59 -1.3 29.7
07:35 1018 30.06 847 25.01 6.1 43.1 59 -1.2 29.9
07:40 1018 30.06 847 25.01 6.4 43.5 59 -1 30.3
07:45 1018 30.06 848 25.04 6.3 43.3 61 -0.7 30.7
07:50 1018 30.06 848 25.04 6.3 43.4 60 -0.9 30.4
07:55 1018 30.06 848 25.04 6.7 44.1 59 -0.7 30.7
08:00 1018 30.06 848 25.04 6.8 44.2 59 -0.6 30.9
08:05 1019 30.09 848 25.04 6.7 44 60 -0.5 31.1
08:10 1019 30.09 848 25.04 6.6 43.9 60 -0.6 30.9
08:15 1019 30.09 848 25.04 6.7 44 60 -0.5 31.2
08:20 1019 30.09 848 25.04 6.7 44.1 59 -0.7 30.8
08:25 1019 30.09 848 25.04 6.8 44.2 60 -0.5 31.1
08:30 1019 30.09 848 25.04 6.9 44.4 58 -0.7 30.7
08:35 1019 30.09 848 25.04 7.3 45.1 58 -0.5 31
08:40 1019 30.09 848 25.04 7.4 45.3 58 -0.4 31.3
08:45 1019 30.09 848 25.04 7.4 45.3 58 -0.3 31.4
08:50 1019 30.09 848 25.04 7 44.6 62 0.2 32.4
08:55 1019 30.09 848 25.04 5.8 42.4 66 -0.2 31.7
09:00 1019 30.09 848 25.04 5.5 41.9 65 -0.5 31.1
09:05 1019 30.09 848 25.04 5.6 42.1 65 -0.5 31.1
09:10 1019 30.09 848 25.04 5.7 42.3 64 -0.4 31.2
09:15 1019 30.09 849 25.07 5.8 42.5 63 -0.6 31
09:20 1019 30.09 849 25.07 5.9 42.7 64 -0.4 31.3
09:25 1019 30.09 849 25.07 6.1 43 63 -0.4 31.2
09:30 1019 30.09 849 25.07 6.2 43.2 64 -0.1 31.8
09:35 1019 30.09 849 25.07 6.4 43.5 63 -0.2 31.7
09:40 1019 30.09 849 25.07 6.3 43.4 64 -0.1 31.9
09:45 1019 30.09 849 25.07 6.4 43.5 65 0.2 32.4
09:50 1020 30.12 849 25.07 5.9 42.7 68 0.6 33
09:55 1020 30.12 849 25.07 5.7 42.3 68 0.3 32.6
10:00 1020 30.12 849 25.07 6 42.8 63 -0.5 31.2
10:05 1020 30.12 849 25.07 6.5 43.7 63 -0.1 31.9
10:10 1020 30.12 849 25.07 6.7 44.1 61 -0.3 31.4
10:15 1020 30.12 849 25.07 7.2 44.9 59 -0.4 31.3
10:20 1020 30.12 849 25.07 7.2 44.9 59 -0.4 31.3
10:25 1020 30.12 849 25.07 7.4 45.3 59 -0.1 31.9
10:30 1020 30.12 849 25.07 7.6 45.7 58 -0.2 31.6
10:35 1020 30.12 849 25.07 7.6 45.7 58 -0.1 31.9
10:40 1020 30.12 849 25.07 8 46.4 56 -0.2 31.6
10:45 1020 30.12 849 25.07 8.2 46.8 56 0.1 32.1
10:50 1020 30.12 849 25.07 8.3 47 55 -0.1 31.8
10:55 1020 30.12 849 25.07 8.4 47.2 56 0.3 32.5
11:00 1020 30.12 849 25.07 8.4 47.2 56 0.2 32.4
11:05 1020 30.12 849 25.07 8.4 47 60 1 33.8
11:10 1020 30.12 849 25.07 8.2 46.7 59 0.6 33.1
11:15 1020 30.12 849 25.07 8.5 47.4 58 0.7 33.3
11:20 1020 30.12 849 25.07 8.8 47.8 57 0.9 33.5
11:25 1020 30.12 849 25.07 8.9 48.1 56 0.7 33.3
11:30 1020 30.12 849 25.07 8.8 47.9 57 0.8 33.4
11:35 1020 30.12 849 25.07 9 48.2 56 0.6 33.2
11:40 1020 30.12 849 25.07 9.1 48.4 55 0.5 32.8
11:45 1020 30.12 849 25.07 9.3 48.7 54 0.6 33
11:50 1020 30.12 849 25.07 9.1 48.4 53 0 32.1
11:55 1020 30.12 849 25.07 9.1 48.3 53 -0 32
12:00 1020 30.12 849 25.07 9.3 48.8 53 0.2 32.3
12:05 1020 30.12 849 25.07 9.7 49.4 52 0.3 32.6
12:10 1020 30.12 849 25.07 9.9 49.9 51 0.3 32.6
12:15 1020 30.12 849 25.07 10 50.1 52 0.7 33.2
12:20 1020 30.12 849 25.07 9.9 49.8 52 0.5 33
12:25 1020 30.12 849 25.07 9.7 49.5 52 0.5 32.8
12:30 1020 30.12 849 25.07 9.9 49.8 52 0.4 32.8
12:35 1020 30.12 849 25.07 10 50 52 0.5 33
12:40 1020 30.12 849 25.07 10.1 50.1 51 0.4 32.7
12:45 1020 30.12 849 25.07 10 49.9 53 0.8 33.5
12:50 1020 30.12 849 25.07 10.1 50.3 52 0.8 33.4
12:55 1020 30.12 849 25.07 10.6 51.1 50 0.8 33.4
13:00 1020 30.12 849 25.07 10.9 51.6 50 0.9 33.6
13:05 1020 30.12 849 25.07 11 51.8 49 0.9 33.5
13:10 1020 30.12 849 25.07 11 51.9 49 0.8 33.4
13:15 1020 30.12 849 25.07 11.1 52 49 0.9 33.7
13:20 1020 30.12 849 25.07 11.2 52.2 49 1 33.8
13:25 1020 30.12 849 25.07 11.2 52.2 50 1.1 34
13:30 1020 30.12 849 25.07 11.2 52.2 49 1 33.8
13:35 1020 30.12 849 25.07 11.3 52.3 49 1.1 33.9
13:40 1020 30.12 849 25.07 11.4 52.6 50 1.3 34.4
13:45 1020 30.12 849 25.07 11.4 52.4 49 1 33.9
13:50 1020 30.12 849 25.07 11.4 52.4 50 1.3 34.3
13:55 1020 30.12 849 25.07 11.3 52.3 49 1.1 34
14:00 1019 30.09 849 25.07 11.3 52.4 49 1.1 34
14:05 1020 30.12 849 25.07 11.5 52.7 49 1.1 34.1
14:10 1019 30.09 849 25.07 11.5 52.7 48 0.9 33.5
14:15 1019 30.09 849 25.07 11.6 52.8 48 0.9 33.6
14:20 1020 30.12 849 25.07 11.7 53 46 0.4 32.7
14:25 1020 30.12 849 25.07 11.7 53 46 0.4 32.8
14:30 1020 30.12 849 25.07 11.7 53 44 -0 31.9
14:35 1020 30.12 849 25.07 11.7 53 44 -0.3 31.5
14:40 1020 30.12 849 25.07 11.8 53.2 43 -0.4 31.3
14:45 1020 30.12 849 25.07 11.8 53.3 42 -0.7 30.8
14:50 1020 30.12 849 25.07 11.8 53.2 42 -0.7 30.8
14:55 1020 30.12 849 25.07 11.9 53.4 43 -0.2 31.6
15:00 1020 30.12 849 25.07 12 53.6 42 -0.4 31.4
15:05 1020 30.12 849 25.07 12.1 53.7 42 -0.3 31.4
15:10 1020 30.12 849 25.07 12.2 53.9 42 -0.2 31.7
15:15 1020 30.12 849 25.07 12.1 53.8 43 -0.2 31.7
15:20 1020 30.12 849 25.07 12.3 54.1 43 0 32.1
15:25 1020 30.12 849 25.07 12.3 54.1 42 -0.2 31.6
15:30 1020 30.12 849 25.07 12.1 53.8 43 -0.1 31.8
15:35 1020 30.12 849 25.07 11.8 53.2 43 -0.3 31.4
15:40 1020 30.12 849 25.07 11.8 53.2 43 -0.3 31.5
15:45 1020 30.12 849 25.07 11.7 53.1 44 -0.1 31.9
15:50 1020 30.12 849 25.07 11.7 53 44 -0.1 31.8
15:55 1020 30.12 849 25.07 11.6 52.9 44 -0.1 31.8
16:00 1020 30.12 849 25.07 11.6 52.8 44 -0.3 31.5
16:05 1020 30.12 849 25.07 11.5 52.8 45 -0 31.9
16:10 1020 30.12 849 25.07 11.4 52.4 46 0.1 32.3
16:15 1020 30.12 849 25.07 11.1 52 46 -0 31.9
16:20 1020 30.12 849 25.07 11.1 51.9 46 -0.1 31.8
16:25 1020 30.12 849 25.07 11 51.8 47 0.1 32.2
16:30 1020 30.12 849 25.07 10.8 51.5 47 -0.1 31.9
16:35 1020 30.12 849 25.07 10.7 51.3 48 0.1 32.2
16:40 1020 30.12 849 25.07 10.6 51.1 49 0.3 32.5
16:45 1020 30.12 849 25.07 10.5 50.9 49 0.4 32.7
16:50 1020 30.12 849 25.07 10.4 50.7 49 0.2 32.4
16:55 1020 30.12 849 25.07 10.4 50.7 49 0.1 32.1
17:00 1020 30.12 849 25.07 10.4 50.6 48 -0.1 31.9
17:05 1020 30.12 849 25.07 10.4 50.7 48 -0.2 31.6
17:10 1020 30.12 849 25.07 10.4 50.6 48 -0.3 31.5
17:15 1020 30.12 849 25.07 10.3 50.6 48 -0.1 31.9
17:20 1020 30.12 849 25.07 10.2 50.4 48 -0.2 31.7
17:25 1020 30.12 849 25.07 10.1 50.3 48 -0.3 31.5
17:30 1020 30.12 849 25.07 10.1 50.2 48 -0.4 31.3
17:35 1020 30.12 849 25.07 10.1 50.1 48 -0.4 31.2
17:40 1020 30.12 849 25.07 10.2 50.4 47 -0.7 30.7
17:45 1020 30.12 849 25.07 10.2 50.3 47 -0.6 31
17:50 1020 30.12 849 25.07 10 50.1 48 -0.4 31.2
17:55 1020 30.12 849 25.07 9.9 49.8 47 -0.9 30.3
18:00 1020 30.12 849 25.07 9.8 49.6 47 -1.1 30.1
18:05 1020 30.12 849 25.07 9.3 48.7 49 -0.9 30.3
18:10 1019 30.09 849 25.07 8.9 48.1 49 -1.2 29.8
18:15 1019 30.09 849 25.07 8.6 47.5 48 -1.6 29
18:20 1019 30.09 849 25.07 8.7 47.7 50 -1 30.2
18:25 1019 30.09 849 25.07 8.3 46.9 51 -1.1 29.9
18:30 1019 30.09 849 25.07 8.1 46.6 52 -1.1 30.1
18:35 1019 30.09 849 25.07 7.9 46.3 52 -1.3 29.7
18:40 1019 30.09 849 25.07 8 46.5 51 -1.3 29.6
18:45 1019 30.09 849 25.07 7.9 46.3 52 -1.3 29.7
18:50 1019 30.09 849 25.07 7.7 45.8 54 -1 30.2
18:55 1019 30.09 849 25.07 7 44.6 56 -1.2 29.9
19:00 1019 30.09 849 25.07 7 44.5 55 -1.4 29.5
19:05 1019 30.09 849 25.07 7.4 45.3 54 -1.4 29.6
19:10 1019 30.09 849 25.07 7.4 45.4 55 -1 30.2
19:15 1019 30.09 849 25.07 7 44.7 56 -1.1 30
19:20 1019 30.09 848 25.04 7.2 45 54 -1.5 29.3
19:25 1019 30.09 848 25.04 7.5 45.4 55 -1.1 30
19:30 1019 30.09 849 25.07 7 44.6 57 -0.9 30.3
19:35 1019 30.09 848 25.04 7 44.7 55 -1.3 29.7
19:40 1019 30.09 848 25.04 7.5 45.5 54 -1.1 29.9
19:45 1019 30.09 848 25.04 7.5 45.5 56 -0.7 30.7
19:50 1019 30.09 848 25.04 6.6 43.9 59 -0.7 30.7
19:55 1019 30.09 848 25.04 6.1 43 60 -1 30.2
20:00 1019 30.09 848 25.04 6 42.9 61 -1 30.2
20:05 1019 30.09 848 25.04 6.2 43.1 60 -1.1 30.1
20:10 1019 30.09 848 25.04 6 42.8 59 -1.3 29.7
20:15 1019 30.09 848 25.04 6 42.9 60 -1.2 29.8
20:20 1019 30.09 848 25.04 5.9 42.6 59 -1.5 29.3
20:25 1019 30.09 848 25.04 6.1 42.9 59 -1.4 29.5
20:30 1019 30.09 848 25.04 6 42.9 57 -1.7 28.9
20:35 1019 30.09 848 25.04 6.3 43.3 57 -1.6 29.2
20:40 1019 30.09 848 25.04 6.5 43.6 56 -1.8 28.8
20:45 1019 30.09 848 25.04 6.8 44.3 54 -1.9 28.5
20:50 1019 30.09 848 25.04 7.3 45.1 52 -1.8 28.7
20:55 1019 30.09 848 25.04 7.4 45.3 53 -1.5 29.3
21:00 1019 30.09 848 25.04 6.8 44.2 57 -1.2 29.9
21:05 1019 30.09 848 25.04 6 42.7 59 -1.3 29.6
21:10 1019 30.09 848 25.04 5.3 41.5 61 -1.6 29.1
21:15 1019 30.09 848 25.04 5.2 41.3 61 -1.7 29
21:20 1019 30.09 848 25.04 5.6 42 59 -1.9 28.6
21:25 1019 30.09 848 25.04 5.7 42.3 59 -1.7 28.9
21:30 1019 30.09 848 25.04 5.3 41.5 61 -1.6 29.1
21:35 1019 30.09 848 25.04 5.7 42.2 58 -2 28.4
21:40 1019 30.09 848 25.04 5.5 42 59 -1.8 28.8
21:45 1019 30.09 848 25.04 5.3 41.6 60 -1.8 28.7
21:50 1019 30.09 848 25.04 5.5 41.9 58 -2.1 28.1
21:55 1019 30.09 848 25.04 6.4 43.5 55 -1.9 28.5
22:00 1019 30.09 848 25.04 5.8 42.4 58 -1.9 28.6
22:05 1019 30.09 848 25.04 5.7 42.3 57 -2 28.4
22:10 1019 30.09 848 25.04 5.9 42.6 56 -2.1 28.2
22:15 1019 30.09 848 25.04 6.3 43.3 55 -2 28.4
22:20 1019 30.09 848 25.04 6.2 43.1 56 -2 28.5
22:25 1019 30.09 848 25.04 5.6 42.1 58 -1.9 28.5
22:30 1019 30.09 848 25.04 5.4 41.7 59 -2 28.4
22:35 1019 30.09 848 25.04 5.2 41.3 59 -2.2 28.1
22:40 1019 30.09 848 25.04 5.6 42.1 56 -2.4 27.7
22:45 1019 30.09 848 25.04 5.6 42.1 59 -1.8 28.7
22:50 1019 30.09 848 25.04 4.7 40.5 60 -2.3 27.9
22:55 1019 30.09 848 25.04 4.8 40.6 61 -2.2 28.1
23:00 1019 30.09 848 25.04 4.5 40.2 61 -2.3 27.8
23:05 1019 30.09 848 25.04 4.7 40.4 60 -2.3 27.8
23:10 1019 30.09 848 25.04 4.8 40.7 60 -2.3 27.8
23:15 1019 30.09 848 25.04 4.4 39.9 62 -2.2 28
23:20 1019 30.09 848 25.04 4.3 39.8 61 -2.5 27.6
23:25 1019 30.09 848 25.04 4.5 40.1 61 -2.4 27.7
23:30 1019 30.09 848 25.04 4.4 39.9 62 -2.3 27.8
23:35 1019 30.09 848 25.04 4.2 39.6 62 -2.4 27.7
23:40 1019 30.09 848 25.04 4.4 39.8 61 -2.4 27.7
23:45 1019 30.09 848 25.04 4.3 39.8 61 -2.5 27.5
23:50 1019 30.09 848 25.04 4.4 40 60 -2.6 27.4
23:55 1019 30.09 848 25.04 4.7 40.5 60 -2.4 27.7
24:00 1018 30.06 848 25.04 4.6 40.2 60 -2.4 27.6